sensor_id;sensor_type;location;lat;lon;timestamp;P1;durP1;ratioP1;P2;durP2;ratioP2
42590;SDS011;28218;53.342;-6.216;2023-04-20T00:00:09;20.55;;;3.50;;
42590;SDS011;28218;53.342;-6.216;2023-04-20T00:02:38;23.55;;;3.67;;
42590;SDS011;28218;53.342;-6.216;2023-04-20T00:05:08;21.02;;;3.38;;
42590;SDS011;28218;53.342;-6.216;2023-04-20T00:07:37;12.00;;;3.40;;
42590;SDS011;28218;53.342;-6.216;2023-04-20T00:10:07;15.00;;;3.00;;
42590;SDS011;28218;53.342;-6.216;2023-04-20T00:12:36;12.95;;;3.65;;
42590;SDS011;28218;53.342;-6.216;2023-04-20T00:15:05;10.13;;;2.95;;
42590;SDS011;28218;53.342;-6.216;2023-04-20T00:17:35;15.20;;;3.42;;
42590;SDS011;28218;53.342;-6.216;2023-04-20T00:20:07;13.05;;;3.22;;
42590;SDS011;28218;53.342;-6.216;2023-04-20T00:22:36;25.88;;;3.65;;
42590;SDS011;28218;53.342;-6.216;2023-04-20T00:25:05;16.90;;;4.55;;
42590;SDS011;28218;53.342;-6.216;2023-04-20T00:27:34;21.00;;;4.32;;
42590;SDS011;28218;53.342;-6.216;2023-04-20T00:30:02;14.80;;;3.55;;
42590;SDS011;28218;53.342;-6.216;2023-04-20T00:32:31;12.80;;;2.67;;
42590;SDS011;28218;53.342;-6.216;2023-04-20T00:35:00;11.43;;;3.13;;
42590;SDS011;28218;53.342;-6.216;2023-04-20T00:37:29;14.50;;;3.38;;
42590;SDS011;28218;53.342;-6.216;2023-04-20T00:39:57;9.10;;;2.72;;
42590;SDS011;28218;53.342;-6.216;2023-04-20T00:42:25;14.13;;;2.85;;
42590;SDS011;28218;53.342;-6.216;2023-04-20T00:44:54;13.63;;;3.22;;
42590;SDS011;28218;53.342;-6.216;2023-04-20T00:47:22;16.40;;;3.22;;
42590;SDS011;28218;53.342;-6.216;2023-04-20T00:49:50;18.33;;;3.65;;
42590;SDS011;28218;53.342;-6.216;2023-04-20T00:52:20;15.00;;;3.38;;
42590;SDS011;28218;53.342;-6.216;2023-04-20T00:54:48;15.90;;;2.65;;
42590;SDS011;28218;53.342;-6.216;2023-04-20T00:57:17;16.95;;;3.30;;
42590;SDS011;28218;53.342;-6.216;2023-04-20T00:59:49;9.27;;;3.28;;
42590;SDS011;28218;53.342;-6.216;2023-04-20T01:02:18;16.27;;;2.75;;
42590;SDS011;28218;53.342;-6.216;2023-04-20T01:04:47;16.40;;;3.67;;
42590;SDS011;28218;53.342;-6.216;2023-04-20T01:07:15;14.07;;;3.10;;
42590;SDS011;28218;53.342;-6.216;2023-04-20T01:09:45;13.40;;;3.40;;
42590;SDS011;28218;53.342;-6.216;2023-04-20T01:12:13;15.98;;;2.85;;
42590;SDS011;28218;53.342;-6.216;2023-04-20T01:14:42;9.38;;;2.67;;
42590;SDS011;28218;53.342;-6.216;2023-04-20T01:17:10;23.20;;;2.85;;
42590;SDS011;28218;53.342;-6.216;2023-04-20T01:19:40;11.95;;;3.00;;
42590;SDS011;28218;53.342;-6.216;2023-04-20T01:22:13;11.48;;;2.88;;
42590;SDS011;28218;53.342;-6.216;2023-04-20T01:24:43;10.50;;;3.08;;
42590;SDS011;28218;53.342;-6.216;2023-04-20T01:27:12;10.85;;;2.63;;
42590;SDS011;28218;53.342;-6.216;2023-04-20T01:29:42;11.38;;;2.90;;
42590;SDS011;28218;53.342;-6.216;2023-04-20T01:32:10;16.27;;;3.15;;
42590;SDS011;28218;53.342;-6.216;2023-04-20T01:34:39;5.47;;;2.40;;
42590;SDS011;28218;53.342;-6.216;2023-04-20T01:37:08;7.15;;;2.70;;
42590;SDS011;28218;53.342;-6.216;2023-04-20T01:39:38;12.15;;;2.25;;
42590;SDS011;28218;53.342;-6.216;2023-04-20T01:42:07;18.77;;;2.92;;
42590;SDS011;28218;53.342;-6.216;2023-04-20T01:44:38;14.50;;;2.42;;
42590;SDS011;28218;53.342;-6.216;2023-04-20T01:47:06;8.52;;;2.55;;
42590;SDS011;28218;53.342;-6.216;2023-04-20T01:49:34;6.07;;;2.55;;
42590;SDS011;28218;53.342;-6.216;2023-04-20T01:52:03;5.78;;;1.95;;
42590;SDS011;28218;53.342;-6.216;2023-04-20T01:54:31;11.80;;;2.67;;
42590;SDS011;28218;53.342;-6.216;2023-04-20T01:57:01;15.88;;;2.63;;
42590;SDS011;28218;53.342;-6.216;2023-04-20T01:59:29;13.93;;;2.80;;
42590;SDS011;28218;53.342;-6.216;2023-04-20T02:01:57;8.13;;;1.90;;
42590;SDS011;28218;53.342;-6.216;2023-04-20T02:04:26;6.18;;;2.10;;
42590;SDS011;28218;53.342;-6.216;2023-04-20T02:06:54;10.65;;;2.75;;
42590;SDS011;28218;53.342;-6.216;2023-04-20T02:09:22;16.27;;;2.70;;
42590;SDS011;28218;53.342;-6.216;2023-04-20T02:11:51;14.88;;;3.42;;
42590;SDS011;28218;53.342;-6.216;2023-04-20T02:14:20;16.05;;;3.33;;
42590;SDS011;28218;53.342;-6.216;2023-04-20T02:16:48;18.98;;;4.70;;
42590;SDS011;28218;53.342;-6.216;2023-04-20T02:19:18;9.52;;;2.75;;
42590;SDS011;28218;53.342;-6.216;2023-04-20T02:21:47;12.88;;;4.13;;
42590;SDS011;28218;53.342;-6.216;2023-04-20T02:24:15;11.43;;;2.65;;
42590;SDS011;28218;53.342;-6.216;2023-04-20T02:26:44;11.18;;;3.03;;
42590;SDS011;28218;53.342;-6.216;2023-04-20T02:29:12;13.77;;;2.70;;
42590;SDS011;28218;53.342;-6.216;2023-04-20T02:31:41;9.43;;;3.92;;
42590;SDS011;28218;53.342;-6.216;2023-04-20T02:34:10;9.43;;;2.83;;
42590;SDS011;28218;53.342;-6.216;2023-04-20T02:36:38;12.65;;;2.75;;
42590;SDS011;28218;53.342;-6.216;2023-04-20T02:39:06;14.07;;;2.95;;
42590;SDS011;28218;53.342;-6.216;2023-04-20T02:41:35;10.32;;;2.03;;
42590;SDS011;28218;53.342;-6.216;2023-04-20T02:44:03;10.05;;;1.92;;
42590;SDS011;28218;53.342;-6.216;2023-04-20T02:46:32;7.28;;;2.03;;
42590;SDS011;28218;53.342;-6.216;2023-04-20T02:49:02;14.13;;;2.25;;
42590;SDS011;28218;53.342;-6.216;2023-04-20T02:51:30;10.98;;;2.30;;
42590;SDS011;28218;53.342;-6.216;2023-04-20T02:53:58;12.20;;;3.03;;
42590;SDS011;28218;53.342;-6.216;2023-04-20T02:56:27;10.65;;;2.72;;
42590;SDS011;28218;53.342;-6.216;2023-04-20T02:58:55;6.20;;;1.80;;
42590;SDS011;28218;53.342;-6.216;2023-04-20T03:01:23;9.50;;;2.50;;
42590;SDS011;28218;53.342;-6.216;2023-04-20T03:03:52;7.53;;;1.88;;
42590;SDS011;28218;53.342;-6.216;2023-04-20T03:06:22;6.18;;;2.80;;
42590;SDS011;28218;53.342;-6.216;2023-04-20T03:08:52;7.93;;;2.47;;
42590;SDS011;28218;53.342;-6.216;2023-04-20T03:11:20;12.75;;;2.50;;
42590;SDS011;28218;53.342;-6.216;2023-04-20T03:13:49;11.75;;;2.30;;
42590;SDS011;28218;53.342;-6.216;2023-04-20T03:16:18;19.83;;;2.92;;
42590;SDS011;28218;53.342;-6.216;2023-04-20T03:18:46;15.98;;;2.45;;
42590;SDS011;28218;53.342;-6.216;2023-04-20T03:21:15;8.50;;;2.30;;
42590;SDS011;28218;53.342;-6.216;2023-04-20T03:23:44;8.65;;;2.08;;
42590;SDS011;28218;53.342;-6.216;2023-04-20T03:26:12;11.02;;;2.17;;
42590;SDS011;28218;53.342;-6.216;2023-04-20T03:28:40;14.88;;;2.42;;
42590;SDS011;28218;53.342;-6.216;2023-04-20T03:31:09;14.18;;;1.90;;
42590;SDS011;28218;53.342;-6.216;2023-04-20T03:33:37;6.75;;;1.90;;
42590;SDS011;28218;53.342;-6.216;2023-04-20T03:36:06;9.77;;;2.90;;
42590;SDS011;28218;53.342;-6.216;2023-04-20T03:38:35;9.50;;;2.35;;
42590;SDS011;28218;53.342;-6.216;2023-04-20T03:41:05;9.50;;;2.08;;
42590;SDS011;28218;53.342;-6.216;2023-04-20T03:43:34;11.73;;;2.25;;
42590;SDS011;28218;53.342;-6.216;2023-04-20T03:46:02;5.63;;;1.80;;
42590;SDS011;28218;53.342;-6.216;2023-04-20T03:48:30;10.05;;;2.10;;
42590;SDS011;28218;53.342;-6.216;2023-04-20T03:50:59;5.63;;;2.15;;
42590;SDS011;28218;53.342;-6.216;2023-04-20T03:53:27;10.57;;;2.28;;
42590;SDS011;28218;53.342;-6.216;2023-04-20T03:55:55;11.20;;;2.38;;
42590;SDS011;28218;53.342;-6.216;2023-04-20T03:58:25;10.82;;;2.42;;
42590;SDS011;28218;53.342;-6.216;2023-04-20T04:00:59;13.73;;;2.55;;
42590;SDS011;28218;53.342;-6.216;2023-04-20T04:03:28;7.93;;;1.80;;
42590;SDS011;28218;53.342;-6.216;2023-04-20T04:05:57;10.30;;;2.75;;
42590;SDS011;28218;53.342;-6.216;2023-04-20T04:08:25;11.85;;;2.88;;
42590;SDS011;28218;53.342;-6.216;2023-04-20T04:10:53;9.93;;;2.28;;
42590;SDS011;28218;53.342;-6.216;2023-04-20T04:13:22;10.63;;;2.28;;
42590;SDS011;28218;53.342;-6.216;2023-04-20T04:15:51;10.13;;;2.65;;
42590;SDS011;28218;53.342;-6.216;2023-04-20T04:18:20;10.52;;;2.75;;
42590;SDS011;28218;53.342;-6.216;2023-04-20T04:20:49;10.10;;;2.47;;
42590;SDS011;28218;53.342;-6.216;2023-04-20T04:23:17;15.30;;;2.33;;
42590;SDS011;28218;53.342;-6.216;2023-04-20T04:25:45;10.85;;;2.22;;
42590;SDS011;28218;53.342;-6.216;2023-04-20T04:28:14;18.13;;;2.80;;
42590;SDS011;28218;53.342;-6.216;2023-04-20T04:30:42;8.73;;;2.17;;
42590;SDS011;28218;53.342;-6.216;2023-04-20T04:33:12;8.73;;;2.17;;
42590;SDS011;28218;53.342;-6.216;2023-04-20T04:35:40;16.50;;;2.78;;
42590;SDS011;28218;53.342;-6.216;2023-04-20T04:38:10;12.57;;;4.22;;
42590;SDS011;28218;53.342;-6.216;2023-04-20T04:40:39;16.20;;;3.38;;
42590;SDS011;28218;53.342;-6.216;2023-04-20T04:43:12;12.32;;;2.55;;
42590;SDS011;28218;53.342;-6.216;2023-04-20T04:45:40;7.57;;;2.00;;
42590;SDS011;28218;53.342;-6.216;2023-04-20T04:48:20;10.23;;;2.28;;
42590;SDS011;28218;53.342;-6.216;2023-04-20T04:50:48;11.45;;;2.50;;
42590;SDS011;28218;53.342;-6.216;2023-04-20T04:53:17;6.97;;;2.50;;
42590;SDS011;28218;53.342;-6.216;2023-04-20T04:55:45;13.98;;;3.95;;
42590;SDS011;28218;53.342;-6.216;2023-04-20T04:58:14;37.47;;;5.20;;
42590;SDS011;28218;53.342;-6.216;2023-04-20T05:00:42;15.55;;;3.08;;
42590;SDS011;28218;53.342;-6.216;2023-04-20T05:03:11;12.45;;;2.92;;
42590;SDS011;28218;53.342;-6.216;2023-04-20T05:05:41;10.32;;;2.33;;
42590;SDS011;28218;53.342;-6.216;2023-04-20T05:08:10;11.40;;;2.70;;
42590;SDS011;28218;53.342;-6.216;2023-04-20T05:10:38;13.80;;;2.42;;
42590;SDS011;28218;53.342;-6.216;2023-04-20T05:13:06;17.00;;;3.15;;
42590;SDS011;28218;53.342;-6.216;2023-04-20T05:15:34;12.63;;;3.60;;
42590;SDS011;28218;53.342;-6.216;2023-04-20T05:18:03;11.80;;;4.15;;
42590;SDS011;28218;53.342;-6.216;2023-04-20T05:20:31;15.13;;;4.32;;
42590;SDS011;28218;53.342;-6.216;2023-04-20T05:23:01;22.60;;;4.65;;
42590;SDS011;28218;53.342;-6.216;2023-04-20T05:25:29;16.17;;;4.93;;
42590;SDS011;28218;53.342;-6.216;2023-04-20T05:27:59;18.05;;;4.78;;
42590;SDS011;28218;53.342;-6.216;2023-04-20T05:30:27;13.68;;;3.72;;
42590;SDS011;28218;53.342;-6.216;2023-04-20T05:32:55;15.45;;;3.90;;
42590;SDS011;28218;53.342;-6.216;2023-04-20T05:35:24;12.77;;;3.00;;
42590;SDS011;28218;53.342;-6.216;2023-04-20T05:37:52;14.40;;;3.50;;
42590;SDS011;28218;53.342;-6.216;2023-04-20T05:40:22;13.32;;;3.22;;
42590;SDS011;28218;53.342;-6.216;2023-04-20T05:42:51;11.32;;;3.67;;
42590;SDS011;28218;53.342;-6.216;2023-04-20T05:45:19;18.98;;;4.28;;
42590;SDS011;28218;53.342;-6.216;2023-04-20T05:47:54;15.55;;;3.10;;
42590;SDS011;28218;53.342;-6.216;2023-04-20T05:50:23;10.90;;;2.97;;
42590;SDS011;28218;53.342;-6.216;2023-04-20T05:52:52;19.58;;;4.20;;
42590;SDS011;28218;53.342;-6.216;2023-04-20T05:55:20;15.20;;;3.63;;
42590;SDS011;28218;53.342;-6.216;2023-04-20T05:57:51;11.32;;;3.53;;
42590;SDS011;28218;53.342;-6.216;2023-04-20T06:00:20;19.90;;;4.80;;
42590;SDS011;28218;53.342;-6.216;2023-04-20T06:02:51;20.63;;;3.97;;
42590;SDS011;28218;53.342;-6.216;2023-04-20T06:05:21;12.07;;;3.28;;
42590;SDS011;28218;53.342;-6.216;2023-04-20T06:07:49;8.52;;;4.75;;
42590;SDS011;28218;53.342;-6.216;2023-04-20T06:10:18;23.38;;;4.20;;
42590;SDS011;28218;53.342;-6.216;2023-04-20T06:12:48;12.40;;;5.25;;
42590;SDS011;28218;53.342;-6.216;2023-04-20T06:15:17;12.65;;;3.85;;
42590;SDS011;28218;53.342;-6.216;2023-04-20T06:17:47;19.10;;;4.68;;
42590;SDS011;28218;53.342;-6.216;2023-04-20T06:20:16;21.23;;;4.00;;
42590;SDS011;28218;53.342;-6.216;2023-04-20T06:22:45;11.88;;;4.07;;
42590;SDS011;28218;53.342;-6.216;2023-04-20T06:25:14;14.75;;;4.15;;
42590;SDS011;28218;53.342;-6.216;2023-04-20T06:27:42;15.43;;;4.18;;
42590;SDS011;28218;53.342;-6.216;2023-04-20T06:30:13;15.50;;;4.38;;
42590;SDS011;28218;53.342;-6.216;2023-04-20T06:32:41;12.43;;;4.70;;
42590;SDS011;28218;53.342;-6.216;2023-04-20T06:35:10;20.20;;;4.97;;
42590;SDS011;28218;53.342;-6.216;2023-04-20T06:37:38;26.83;;;4.35;;
42590;SDS011;28218;53.342;-6.216;2023-04-20T06:40:07;22.55;;;7.15;;
42590;SDS011;28218;53.342;-6.216;2023-04-20T06:42:35;16.45;;;5.53;;
42590;SDS011;28218;53.342;-6.216;2023-04-20T06:45:04;16.92;;;5.30;;
42590;SDS011;28218;53.342;-6.216;2023-04-20T06:47:35;17.17;;;5.05;;
42590;SDS011;28218;53.342;-6.216;2023-04-20T06:50:04;19.00;;;5.53;;
42590;SDS011;28218;53.342;-6.216;2023-04-20T06:52:35;16.88;;;5.32;;
42590;SDS011;28218;53.342;-6.216;2023-04-20T06:55:09;18.95;;;5.40;;
42590;SDS011;28218;53.342;-6.216;2023-04-20T06:57:38;21.45;;;5.38;;
42590;SDS011;28218;53.342;-6.216;2023-04-20T07:00:09;15.68;;;4.80;;
42590;SDS011;28218;53.342;-6.216;2023-04-20T07:02:43;18.05;;;6.47;;
42590;SDS011;28218;53.342;-6.216;2023-04-20T07:05:12;23.80;;;5.82;;
42590;SDS011;28218;53.342;-6.216;2023-04-20T07:10:12;16.88;;;7.13;;
42590;SDS011;28218;53.342;-6.216;2023-04-20T07:12:46;17.30;;;5.65;;
42590;SDS011;28218;53.342;-6.216;2023-04-20T07:15:15;16.73;;;5.28;;
42590;SDS011;28218;53.342;-6.216;2023-04-20T07:17:45;17.30;;;5.47;;
42590;SDS011;28218;53.342;-6.216;2023-04-20T07:20:13;14.48;;;4.18;;
42590;SDS011;28218;53.342;-6.216;2023-04-20T07:22:41;23.73;;;5.40;;
42590;SDS011;28218;53.342;-6.216;2023-04-20T07:25:09;19.35;;;4.75;;
42590;SDS011;28218;53.342;-6.216;2023-04-20T07:27:38;13.45;;;4.85;;
42590;SDS011;28218;53.342;-6.216;2023-04-20T07:30:08;18.98;;;6.15;;
42590;SDS011;28218;53.342;-6.216;2023-04-20T07:32:37;12.35;;;4.82;;
42590;SDS011;28218;53.342;-6.216;2023-04-20T07:35:09;15.63;;;4.90;;
42590;SDS011;28218;53.342;-6.216;2023-04-20T07:37:37;17.67;;;4.80;;
42590;SDS011;28218;53.342;-6.216;2023-04-20T07:40:06;26.30;;;5.18;;
42590;SDS011;28218;53.342;-6.216;2023-04-20T07:42:35;17.20;;;4.97;;
42590;SDS011;28218;53.342;-6.216;2023-04-20T07:45:04;17.65;;;5.07;;
42590;SDS011;28218;53.342;-6.216;2023-04-20T07:47:33;20.35;;;5.38;;
42590;SDS011;28218;53.342;-6.216;2023-04-20T07:50:03;17.05;;;5.97;;
42590;SDS011;28218;53.342;-6.216;2023-04-20T07:52:34;24.33;;;5.00;;
42590;SDS011;28218;53.342;-6.216;2023-04-20T07:55:02;27.77;;;6.32;;
42590;SDS011;28218;53.342;-6.216;2023-04-20T07:57:33;24.33;;;5.85;;
42590;SDS011;28218;53.342;-6.216;2023-04-20T08:00:02;24.17;;;6.10;;
42590;SDS011;28218;53.342;-6.216;2023-04-20T08:02:32;19.75;;;5.30;;
42590;SDS011;28218;53.342;-6.216;2023-04-20T08:05:01;28.38;;;6.43;;
42590;SDS011;28218;53.342;-6.216;2023-04-20T08:07:30;25.30;;;5.47;;
42590;SDS011;28218;53.342;-6.216;2023-04-20T08:10:00;14.23;;;5.80;;
42590;SDS011;28218;53.342;-6.216;2023-04-20T08:12:28;20.98;;;6.10;;
42590;SDS011;28218;53.342;-6.216;2023-04-20T08:14:58;20.35;;;4.80;;
42590;SDS011;28218;53.342;-6.216;2023-04-20T08:17:29;14.48;;;5.90;;
42590;SDS011;28218;53.342;-6.216;2023-04-20T08:19:59;15.38;;;5.00;;
42590;SDS011;28218;53.342;-6.216;2023-04-20T08:22:27;19.25;;;5.43;;
42590;SDS011;28218;53.342;-6.216;2023-04-20T08:24:56;30.95;;;6.03;;
42590;SDS011;28218;53.342;-6.216;2023-04-20T08:27:26;12.35;;;5.13;;
42590;SDS011;28218;53.342;-6.216;2023-04-20T08:29:56;18.80;;;5.15;;
42590;SDS011;28218;53.342;-6.216;2023-04-20T08:32:24;22.63;;;5.40;;
42590;SDS011;28218;53.342;-6.216;2023-04-20T08:34:52;15.73;;;4.13;;
42590;SDS011;28218;53.342;-6.216;2023-04-20T08:37:21;27.10;;;5.43;;
42590;SDS011;28218;53.342;-6.216;2023-04-20T08:39:50;22.70;;;5.97;;
42590;SDS011;28218;53.342;-6.216;2023-04-20T08:42:19;17.25;;;6.15;;
42590;SDS011;28218;53.342;-6.216;2023-04-20T08:44:49;21.70;;;6.00;;
42590;SDS011;28218;53.342;-6.216;2023-04-20T08:47:17;21.23;;;5.75;;
42590;SDS011;28218;53.342;-6.216;2023-04-20T08:49:47;14.85;;;6.10;;
42590;SDS011;28218;53.342;-6.216;2023-04-20T08:52:19;23.00;;;6.43;;
42590;SDS011;28218;53.342;-6.216;2023-04-20T08:54:48;16.98;;;5.15;;
42590;SDS011;28218;53.342;-6.216;2023-04-20T08:57:23;15.05;;;5.38;;
42590;SDS011;28218;53.342;-6.216;2023-04-20T08:59:52;19.95;;;6.00;;
42590;SDS011;28218;53.342;-6.216;2023-04-20T09:02:23;22.50;;;7.32;;
42590;SDS011;28218;53.342;-6.216;2023-04-20T09:04:59;21.98;;;6.47;;
42590;SDS011;28218;53.342;-6.216;2023-04-20T09:07:28;22.13;;;6.88;;
42590;SDS011;28218;53.342;-6.216;2023-04-20T09:09:57;27.42;;;6.40;;
42590;SDS011;28218;53.342;-6.216;2023-04-20T09:12:26;23.40;;;6.60;;
42590;SDS011;28218;53.342;-6.216;2023-04-20T09:14:56;21.60;;;5.50;;
42590;SDS011;28218;53.342;-6.216;2023-04-20T09:17:30;15.23;;;6.57;;
42590;SDS011;28218;53.342;-6.216;2023-04-20T09:20:00;14.88;;;5.93;;
42590;SDS011;28218;53.342;-6.216;2023-04-20T09:22:31;26.77;;;6.85;;
42590;SDS011;28218;53.342;-6.216;2023-04-20T09:25:10;19.33;;;5.93;;
42590;SDS011;28218;53.342;-6.216;2023-04-20T09:27:39;16.17;;;6.32;;
42590;SDS011;28218;53.342;-6.216;2023-04-20T09:30:12;17.77;;;5.93;;
42590;SDS011;28218;53.342;-6.216;2023-04-20T09:32:40;22.67;;;6.30;;
42590;SDS011;28218;53.342;-6.216;2023-04-20T09:35:08;22.48;;;6.18;;
42590;SDS011;28218;53.342;-6.216;2023-04-20T09:37:45;16.58;;;6.05;;
42590;SDS011;28218;53.342;-6.216;2023-04-20T09:40:14;20.95;;;5.80;;
42590;SDS011;28218;53.342;-6.216;2023-04-20T09:42:43;22.67;;;6.00;;
42590;SDS011;28218;53.342;-6.216;2023-04-20T09:45:13;16.38;;;5.45;;
42590;SDS011;28218;53.342;-6.216;2023-04-20T09:47:42;18.92;;;5.45;;
42590;SDS011;28218;53.342;-6.216;2023-04-20T09:50:11;14.38;;;5.93;;
42590;SDS011;28218;53.342;-6.216;2023-04-20T09:52:58;22.92;;;8.07;;
42590;SDS011;28218;53.342;-6.216;2023-04-20T09:55:27;20.38;;;6.25;;
42590;SDS011;28218;53.342;-6.216;2023-04-20T09:57:57;19.23;;;6.80;;
42590;SDS011;28218;53.342;-6.216;2023-04-20T10:02:58;21.13;;;6.13;;
42590;SDS011;28218;53.342;-6.216;2023-04-20T10:05:33;17.90;;;6.45;;
42590;SDS011;28218;53.342;-6.216;2023-04-20T10:08:02;13.18;;;6.50;;
42590;SDS011;28218;53.342;-6.216;2023-04-20T10:10:41;19.70;;;6.05;;
42590;SDS011;28218;53.342;-6.216;2023-04-20T10:13:10;19.35;;;5.68;;
42590;SDS011;28218;53.342;-6.216;2023-04-20T10:15:40;18.30;;;6.97;;
42590;SDS011;28218;53.342;-6.216;2023-04-20T10:18:16;17.83;;;6.25;;
42590;SDS011;28218;53.342;-6.216;2023-04-20T10:20:46;16.67;;;7.03;;
42590;SDS011;28218;53.342;-6.216;2023-04-20T10:23:14;17.55;;;6.15;;
42590;SDS011;28218;53.342;-6.216;2023-04-20T10:25:53;21.00;;;6.00;;
42590;SDS011;28218;53.342;-6.216;2023-04-20T10:28:23;20.20;;;7.20;;
42590;SDS011;28218;53.342;-6.216;2023-04-20T10:30:53;16.80;;;6.15;;
42590;SDS011;28218;53.342;-6.216;2023-04-20T10:33:21;15.55;;;6.45;;
42590;SDS011;28218;53.342;-6.216;2023-04-20T10:35:52;18.35;;;6.10;;
42590;SDS011;28218;53.342;-6.216;2023-04-20T10:43:23;19.65;;;5.65;;
42590;SDS011;28218;53.342;-6.216;2023-04-20T10:45:53;16.00;;;5.32;;
42590;SDS011;28218;53.342;-6.216;2023-04-20T10:48:21;13.23;;;5.70;;
42590;SDS011;28218;53.342;-6.216;2023-04-20T10:50:49;25.77;;;5.47;;
42590;SDS011;28218;53.342;-6.216;2023-04-20T10:53:21;19.13;;;5.68;;
42590;SDS011;28218;53.342;-6.216;2023-04-20T10:55:56;22.75;;;6.95;;
42590;SDS011;28218;53.342;-6.216;2023-04-20T10:58:25;19.60;;;5.13;;
42590;SDS011;28218;53.342;-6.216;2023-04-20T11:00:58;19.35;;;4.90;;
42590;SDS011;28218;53.342;-6.216;2023-04-20T11:03:28;23.73;;;5.50;;
42590;SDS011;28218;53.342;-6.216;2023-04-20T11:05:57;21.20;;;5.85;;
42590;SDS011;28218;53.342;-6.216;2023-04-20T11:08:36;18.60;;;4.93;;
42590;SDS011;28218;53.342;-6.216;2023-04-20T11:11:16;22.48;;;4.78;;
42590;SDS011;28218;53.342;-6.216;2023-04-20T11:13:45;18.48;;;4.43;;
42590;SDS011;28218;53.342;-6.216;2023-04-20T11:16:18;21.38;;;5.55;;
42590;SDS011;28218;53.342;-6.216;2023-04-20T11:18:48;21.08;;;4.85;;
42590;SDS011;28218;53.342;-6.216;2023-04-20T11:21:18;26.73;;;5.33;;
42590;SDS011;28218;53.342;-6.216;2023-04-20T11:23:47;19.10;;;5.28;;
42590;SDS011;28218;53.342;-6.216;2023-04-20T11:26:18;17.85;;;4.50;;
42590;SDS011;28218;53.342;-6.216;2023-04-20T11:28:50;24.00;;;6.43;;
42590;SDS011;28218;53.342;-6.216;2023-04-20T11:31:23;21.25;;;4.95;;
42590;SDS011;28218;53.342;-6.216;2023-04-20T11:33:53;16.73;;;4.72;;
42590;SDS011;28218;53.342;-6.216;2023-04-20T11:36:22;18.30;;;5.55;;
42590;SDS011;28218;53.342;-6.216;2023-04-20T11:38:51;17.67;;;4.63;;
42590;SDS011;28218;53.342;-6.216;2023-04-20T11:41:20;15.88;;;4.45;;
42590;SDS011;28218;53.342;-6.216;2023-04-20T11:43:49;17.70;;;4.47;;
42590;SDS011;28218;53.342;-6.216;2023-04-20T11:46:18;13.15;;;3.85;;
42590;SDS011;28218;53.342;-6.216;2023-04-20T11:48:48;17.13;;;4.63;;
42590;SDS011;28218;53.342;-6.216;2023-04-20T11:51:16;15.88;;;4.63;;
42590;SDS011;28218;53.342;-6.216;2023-04-20T11:53:44;26.88;;;4.75;;
42590;SDS011;28218;53.342;-6.216;2023-04-20T11:56:13;17.42;;;4.88;;
42590;SDS011;28218;53.342;-6.216;2023-04-20T11:58:41;21.23;;;4.95;;
42590;SDS011;28218;53.342;-6.216;2023-04-20T12:01:09;15.43;;;4.43;;
42590;SDS011;28218;53.342;-6.216;2023-04-20T12:03:38;12.55;;;4.15;;
42590;SDS011;28218;53.342;-6.216;2023-04-20T12:06:08;18.30;;;4.72;;
42590;SDS011;28218;53.342;-6.216;2023-04-20T12:08:37;15.43;;;4.50;;
42590;SDS011;28218;53.342;-6.216;2023-04-20T12:11:05;20.80;;;3.95;;
42590;SDS011;28218;53.342;-6.216;2023-04-20T12:13:33;15.73;;;3.78;;
42590;SDS011;28218;53.342;-6.216;2023-04-20T12:16:01;18.25;;;4.45;;
42590;SDS011;28218;53.342;-6.216;2023-04-20T12:18:29;18.60;;;4.65;;
42590;SDS011;28218;53.342;-6.216;2023-04-20T12:20:58;16.75;;;4.70;;
42590;SDS011;28218;53.342;-6.216;2023-04-20T12:23:28;8.35;;;3.60;;
42590;SDS011;28218;53.342;-6.216;2023-04-20T12:25:56;11.85;;;3.38;;
42590;SDS011;28218;53.342;-6.216;2023-04-20T12:28:27;18.27;;;4.37;;
42590;SDS011;28218;53.342;-6.216;2023-04-20T12:30:55;12.80;;;3.65;;
42590;SDS011;28218;53.342;-6.216;2023-04-20T12:33:24;19.73;;;4.07;;
42590;SDS011;28218;53.342;-6.216;2023-04-20T12:35:52;15.23;;;3.90;;
42590;SDS011;28218;53.342;-6.216;2023-04-20T12:38:20;18.02;;;4.55;;
42590;SDS011;28218;53.342;-6.216;2023-04-20T12:40:50;16.52;;;4.43;;
42590;SDS011;28218;53.342;-6.216;2023-04-20T12:43:18;19.08;;;5.80;;
42590;SDS011;28218;53.342;-6.216;2023-04-20T12:45:47;15.05;;;4.07;;
42590;SDS011;28218;53.342;-6.216;2023-04-20T12:48:17;21.90;;;4.30;;
42590;SDS011;28218;53.342;-6.216;2023-04-20T12:50:46;14.70;;;4.07;;
42590;SDS011;28218;53.342;-6.216;2023-04-20T12:53:14;17.58;;;4.63;;
42590;SDS011;28218;53.342;-6.216;2023-04-20T12:55:42;15.52;;;4.20;;
42590;SDS011;28218;53.342;-6.216;2023-04-20T12:58:12;20.65;;;4.53;;
42590;SDS011;28218;53.342;-6.216;2023-04-20T13:00:41;21.35;;;4.78;;
42590;SDS011;28218;53.342;-6.216;2023-04-20T13:03:10;11.50;;;4.25;;
42590;SDS011;28218;53.342;-6.216;2023-04-20T13:05:38;18.65;;;7.30;;
42590;SDS011;28218;53.342;-6.216;2023-04-20T13:08:12;11.43;;;4.85;;
42590;SDS011;28218;53.342;-6.216;2023-04-20T13:10:40;18.27;;;5.25;;
42590;SDS011;28218;53.342;-6.216;2023-04-20T13:13:09;13.82;;;5.78;;
42590;SDS011;28218;53.342;-6.216;2023-04-20T13:15:38;16.25;;;4.85;;
42590;SDS011;28218;53.342;-6.216;2023-04-20T13:18:07;17.05;;;5.38;;
42590;SDS011;28218;53.342;-6.216;2023-04-20T13:20:36;17.92;;;5.40;;
42590;SDS011;28218;53.342;-6.216;2023-04-20T13:23:04;19.77;;;5.18;;
42590;SDS011;28218;53.342;-6.216;2023-04-20T13:25:33;18.60;;;4.25;;
42590;SDS011;28218;53.342;-6.216;2023-04-20T13:28:04;20.17;;;6.13;;
42590;SDS011;28218;53.342;-6.216;2023-04-20T13:30:33;10.20;;;3.92;;
42590;SDS011;28218;53.342;-6.216;2023-04-20T13:33:03;12.68;;;3.95;;
42590;SDS011;28218;53.342;-6.216;2023-04-20T13:35:32;18.77;;;5.55;;
42590;SDS011;28218;53.342;-6.216;2023-04-20T13:38:01;12.55;;;3.97;;
42590;SDS011;28218;53.342;-6.216;2023-04-20T13:40:30;12.65;;;4.20;;
42590;SDS011;28218;53.342;-6.216;2023-04-20T13:42:58;17.40;;;4.25;;
42590;SDS011;28218;53.342;-6.216;2023-04-20T13:45:27;18.88;;;3.97;;
42590;SDS011;28218;53.342;-6.216;2023-04-20T13:47:55;16.85;;;4.55;;
42590;SDS011;28218;53.342;-6.216;2023-04-20T13:50:25;13.35;;;3.80;;
42590;SDS011;28218;53.342;-6.216;2023-04-20T13:52:53;10.65;;;4.57;;
42590;SDS011;28218;53.342;-6.216;2023-04-20T13:55:22;14.60;;;4.60;;
42590;SDS011;28218;53.342;-6.216;2023-04-20T13:57:52;9.70;;;4.70;;
42590;SDS011;28218;53.342;-6.216;2023-04-20T14:00:20;17.40;;;4.18;;
42590;SDS011;28218;53.342;-6.216;2023-04-20T14:02:49;13.32;;;4.13;;
42590;SDS011;28218;53.342;-6.216;2023-04-20T14:05:17;15.90;;;5.97;;
42590;SDS011;28218;53.342;-6.216;2023-04-20T14:07:47;12.20;;;4.07;;
42590;SDS011;28218;53.342;-6.216;2023-04-20T14:10:15;9.25;;;4.45;;
42590;SDS011;28218;53.342;-6.216;2023-04-20T14:12:43;15.63;;;4.43;;
42590;SDS011;28218;53.342;-6.216;2023-04-20T14:15:12;14.57;;;4.38;;
42590;SDS011;28218;53.342;-6.216;2023-04-20T14:17:40;14.60;;;4.53;;
42590;SDS011;28218;53.342;-6.216;2023-04-20T14:20:09;13.32;;;5.22;;
42590;SDS011;28218;53.342;-6.216;2023-04-20T14:22:38;14.10;;;4.72;;
42590;SDS011;28218;53.342;-6.216;2023-04-20T14:25:10;12.02;;;5.70;;
42590;SDS011;28218;53.342;-6.216;2023-04-20T14:27:38;14.80;;;5.60;;
42590;SDS011;28218;53.342;-6.216;2023-04-20T14:30:07;12.40;;;4.82;;
42590;SDS011;28218;53.342;-6.216;2023-04-20T14:32:36;9.43;;;3.97;;
42590;SDS011;28218;53.342;-6.216;2023-04-20T14:35:05;15.43;;;4.97;;
42590;SDS011;28218;53.342;-6.216;2023-04-20T14:37:34;13.40;;;4.28;;
42590;SDS011;28218;53.342;-6.216;2023-04-20T14:40:03;9.63;;;4.22;;
42590;SDS011;28218;53.342;-6.216;2023-04-20T14:42:38;11.23;;;4.90;;
42590;SDS011;28218;53.342;-6.216;2023-04-20T14:45:07;12.02;;;3.83;;